Wetterdaten: aktuell Samstag, 21.07.2018 15:00
Datum Zeit Temp. A. Feuchte A. Luftdruck Regen Wind Richtung Richtung Taupunkt Windchill Windben
21.07.2018 15:00 17,3 C 93 % 1010,9 hPa 0,0 l/m 7,3 km/h (2 Bft) W-NW 286 16,2 C 16,9 C 11,3 km/h (2 Bft)
21.07.2018 14:55 17,4 C 93 % 1011,0 hPa 0,0 l/m 6,7 km/h (2 Bft) W 262 16,3 C 17,3 C 9,7 km/h (2 Bft)
21.07.2018 14:50 17,3 C 93 % 1011,0 hPa 0,0 l/m 8,0 km/h (2 Bft) W 281 16,2 C 16,5 C 11,3 km/h (2 Bft)
21.07.2018 14:45 17,4 C 93 % 1011,1 hPa 0,0 l/m 6,9 km/h (2 Bft) W 271 16,3 C 17,2 C 11,3 km/h (2 Bft)
21.07.2018 14:40 17,3 C 93 % 1011,1 hPa 0,0 l/m 5,8 km/h (2 Bft) W-NW 286 16,2 C 17,3 C 11,3 km/h (2 Bft)
21.07.2018 14:35 17,4 C 93 % 1011,1 hPa 0,0 l/m 7,3 km/h (2 Bft) W-SW 257 16,3 C 17,0 C 12,9 km/h (3 Bft)
21.07.2018 14:30 17,3 C 93 % 1011,1 hPa 0,2 l/m 6,9 km/h (2 Bft) W-NW 284 16,2 C 17,1 C 12,9 km/h (3 Bft)
21.07.2018 14:25 17,3 C 93 % 1011,0 hPa 0,0 l/m 6,5 km/h (2 Bft) W-NW 286 16,2 C 17,3 C 11,3 km/h (2 Bft)
21.07.2018 14:20 17,3 C 93 % 1011,0 hPa 0,2 l/m 8,0 km/h (2 Bft) W-NW 288 16,2 C 16,5 C 14,5 km/h (3 Bft)
21.07.2018 14:15 17,3 C 93 % 1011,0 hPa 0,0 l/m 7,8 km/h (2 Bft) W-NW 300 16,2 C 16,6 C 12,9 km/h (3 Bft)
21.07.2018 14:10 17,2 C 93 % 1011,0 hPa 0,0 l/m 5,8 km/h (2 Bft) W-NW 293 16,1 C 17,2 C 9,7 km/h (2 Bft)
21.07.2018 14:05 17,2 C 93 % 1011,1 hPa 0,0 l/m 7,1 km/h (2 Bft) W 271 16,1 C 16,9 C 12,9 km/h (3 Bft)
21.07.2018 14:00 17,2 C 93 % 1011,0 hPa 0,0 l/m 8,3 km/h (2 Bft) W-NW 298 16,1 C 16,3 C 14,5 km/h (3 Bft)
21.07.2018 13:55 17,1 C 93 % 1011,1 hPa 0,2 l/m 7,6 km/h (2 Bft) NW 316 16,0 C 16,5 C 12,9 km/h (3 Bft)
21.07.2018 13:50 17,1 C 93 % 1011,1 hPa 0,0 l/m 6,8 km/h (2 Bft) W-NW 296 16,0 C 16,9 C 11,3 km/h (2 Bft)
21.07.2018 13:45 17,1 C 92 % 1011,2 hPa 0,2 l/m 10,0 km/h (2 Bft) W-NW 299 15,8 C 15,4 C 14,5 km/h (3 Bft)
21.07.2018 13:40 17,1 C 92 % 1011,1 hPa 0,0 l/m 12,8 km/h (3 Bft) NW 309 15,8 C 14,4 C 17,7 km/h (3 Bft)
21.07.2018 13:35 17,2 C 92 % 1011,1 hPa 0,2 l/m 12,4 km/h (2 Bft) W-NW 302 15,9 C 14,7 C 17,7 km/h (3 Bft)
21.07.2018 13:30 17,2 C 92 % 1011,0 hPa 0,0 l/m 14,0 km/h (3 Bft) W-NW 294 15,9 C 14,2 C 17,7 km/h (3 Bft)
21.07.2018 13:25 17,4 C 92 % 1011,0 hPa 0,0 l/m 13,5 km/h (3 Bft) W-NW 292 16,1 C 14,5 C 19,3 km/h (3 Bft)
21.07.2018 13:20 17,4 C 92 % 1011,0 hPa 0,2 l/m 13,0 km/h (3 Bft) W 276 16,1 C 14,7 C 19,3 km/h (3 Bft)
21.07.2018 13:15 17,6 C 92 % 1011,0 hPa 0,0 l/m 14,7 km/h (3 Bft) W-NW 302 16,3 C 14,4 C 19,3 km/h (3 Bft)
21.07.2018 13:10 17,7 C 92 % 1011,0 hPa 0,2 l/m 14,8 km/h (3 Bft) W-NW 302 16,4 C 14,5 C 19,3 km/h (3 Bft)
21.07.2018 13:05 17,8 C 93 % 1011,0 hPa 0,0 l/m 9,9 km/h (2 Bft) W-NW 298 16,7 C 16,2 C 12,9 km/h (3 Bft)
21.07.2018 13:00 17,9 C 93 % 1010,9 hPa 0,0 l/m 9,2 km/h (2 Bft) NW 313 16,8 C 16,6 C 14,5 km/h (3 Bft)
21.07.2018 12:55 17,9 C 93 % 1010,9 hPa 0,0 l/m 9,7 km/h (2 Bft) W-NW 300 16,8 C 16,4 C 14,5 km/h (3 Bft)
21.07.2018 12:50 17,8 C 93 % 1010,9 hPa 0,0 l/m 6,3 km/h (2 Bft) NW 313 16,7 C 17,8 C 11,3 km/h (2 Bft)
21.07.2018 12:45 17,8 C 93 % 1010,9 hPa 0,2 l/m 1,9 km/h (1 Bft) N 360 16,7 C 17,8 C 6,4 km/h (2 Bft)
21.07.2018 12:40 17,8 C 93 % 1010,9 hPa 0,0 l/m 3,6 km/h (1 Bft) N 350 16,7 C 17,8 C 6,4 km/h (2 Bft)
21.07.2018 12:35 17,7 C 93 % 1010,9 hPa 0,0 l/m 4,2 km/h (1 Bft) NW 320 16,6 C 17,7 C 8,0 km/h (2 Bft)
21.07.2018 12:30 17,7 C 93 % 1010,9 hPa 0,2 l/m 2,8 km/h (1 Bft) N-NW 333 16,6 C 17,7 C 6,4 km/h (2 Bft)
21.07.2018 12:25 17,7 C 93 % 1010,9 hPa 0,0 l/m 1,2 km/h (1 Bft) NW 323 16,6 C 17,7 C 4,8 km/h (1 Bft)
21.07.2018 12:20 17,7 C 93 % 1010,8 hPa 0,0 l/m 2,5 km/h (1 Bft) N-NW 348 16,6 C 17,7 C 4,8 km/h (1 Bft)
21.07.2018 12:15 17,6 C 94 % 1010,7 hPa 0,0 l/m 2,3 km/h (1 Bft) N 360 16,6 C 17,6 C 4,8 km/h (1 Bft)
21.07.2018 12:10 17,6 C 94 % 1010,8 hPa 0,0 l/m 0,2 km/h (0 Bft) N 355 16,6 C 17,6 C 4,8 km/h (1 Bft)
21.07.2018 12:05 17,4 C 94 % 1010,8 hPa 0,2 l/m 1,0 km/h (0 Bft) W 271 16,4 C 17,4 C 4,8 km/h (1 Bft)
21.07.2018 12:00 17,3 C 94 % 1010,8 hPa 0,0 l/m 3,5 km/h (1 Bft) W 271 16,3 C 17,3 C 6,4 km/h (2 Bft)
21.07.2018 11:55 17,3 C 94 % 1010,8 hPa 0,0 l/m 4,6 km/h (1 Bft) W 271 16,3 C 17,3 C 6,4 km/h (2 Bft)
21.07.2018 11:50 17,3 C 94 % 1010,8 hPa 0,0 l/m 3,9 km/h (1 Bft) W 271 16,3 C 17,3 C 6,4 km/h (2 Bft)
21.07.2018 11:45 17,2 C 94 % 1010,7 hPa 0,2 l/m 4,2 km/h (1 Bft) W 281 16,2 C 17,2 C 6,4 km/h (2 Bft)
21.07.2018 11:40 17,2 C 94 % 1010,6 hPa 0,0 l/m 2,9 km/h (1 Bft) W-NW 286 16,2 C 17,2 C 4,8 km/h (1 Bft)
21.07.2018 11:35 17,1 C 94 % 1010,6 hPa 0,0 l/m 4,3 km/h (1 Bft) W-NW 286 16,1 C 17,1 C 6,4 km/h (2 Bft)
21.07.2018 11:30 17,1 C 94 % 1010,6 hPa 0,0 l/m 5,7 km/h (2 Bft) W 275 16,1 C 17,1 C 8,0 km/h (2 Bft)
21.07.2018 11:25 17,0 C 94 % 1010,6 hPa 0,2 l/m 2,3 km/h (1 Bft) W-SW 244 16,0 C 17,0 C 4,8 km/h (1 Bft)
21.07.2018 11:20 17,0 C 94 % 1010,6 hPa 0,0 l/m 2,6 km/h (1 Bft) W-NW 284 16,0 C 17,0 C 6,4 km/h (2 Bft)
21.07.2018 11:15 16,9 C 94 % 1010,6 hPa 0,2 l/m 0,7 km/h (0 Bft) W-NW 292 15,9 C 16,9 C 4,8 km/h (1 Bft)
21.07.2018 11:10 16,9 C 94 % 1010,6 hPa 0,2 l/m 1,4 km/h (1 Bft) W-NW 292 15,9 C 16,9 C 6,4 km/h (2 Bft)
21.07.2018 11:05 16,9 C 94 % 1010,6 hPa 0,2 l/m 0,6 km/h (0 Bft) W-NW 283 15,9 C 16,9 C 4,8 km/h (1 Bft)
21.07.2018 11:00 16,8 C 94 % 1010,6 hPa 0,2 l/m 0,2 km/h (0 Bft) W-NW 283 15,8 C 16,8 C 3,2 km/h (1 Bft)
21.07.2018 10:55 16,8 C 94 % 1010,6 hPa 0,0 l/m 0,1 km/h (0 Bft) W-NW 283 15,8 C 16,8 C 3,2 km/h (1 Bft)
21.07.2018 10:50 16,8 C 93 % 1010,6 hPa 0,2 l/m 0,0 km/h (0 Bft) W-NW 283 15,7 C 16,8 C 0,0 km/h (0 Bft)
21.07.2018 10:45 16,8 C 93 % 1010,6 hPa 0,2 l/m 1,2 km/h (1 Bft) W-NW 283 15,7 C 16,8 C 3,2 km/h (1 Bft)
21.07.2018 10:40 16,8 C 93 % 1010,5 hPa 0,0 l/m 1,6 km/h (1 Bft) W-NW 283 15,7 C 16,8 C 4,8 km/h (1 Bft)
21.07.2018 10:35 16,9 C 93 % 1010,5 hPa 0,2 l/m 1,8 km/h (1 Bft) W-NW 282 15,8 C 16,9 C 4,8 km/h (1 Bft)
21.07.2018 10:30 16,9 C 93 % 1010,5 hPa 0,0 l/m 0,8 km/h (0 Bft) W 281 15,8 C 16,9 C 3,2 km/h (1 Bft)
21.07.2018 10:25 16,9 C 93 % 1010,4 hPa 0,2 l/m 0,1 km/h (0 Bft) W 281 15,8 C 16,9 C 1,6 km/h (1 Bft)
21.07.2018 10:20 16,9 C 93 % 1010,4 hPa 0,4 l/m 1,7 km/h (1 Bft) W 281 15,8 C 16,9 C 4,8 km/h (1 Bft)
21.07.2018 10:15 16,9 C 93 % 1010,4 hPa 0,0 l/m 0,0 km/h (0 Bft) W 269 15,8 C 16,9 C 0,0 km/h (0 Bft)
21.07.2018 10:10 16,9 C 93 % 1010,4 hPa 0,2 l/m 0,1 km/h (0 Bft) W 269 15,8 C 16,9 C 1,6 km/h (1 Bft)
21.07.2018 10:05 16,9 C 93 % 1010,4 hPa 0,0 l/m 0,0 km/h (0 Bft) W 269 15,8 C 16,9 C 0,0 km/h (0 Bft)
21.07.2018 10:00 16,9 C 93 % 1010,4 hPa 0,2 l/m 0,1 km/h (0 Bft) W 269 15,8 C 16,9 C 3,2 km/h (1 Bft)
21.07.2018 09:55 16,9 C 93 % 1010,4 hPa 0,0 l/m 0,0 km/h (0 Bft) W 269 15,8 C 16,9 C 0,0 km/h (0 Bft)
21.07.2018 09:50 17,0 C 94 % 1010,3 hPa 0,0 l/m 0,0 km/h (0 Bft) W 269 16,0 C 17,0 C 0,0 km/h (0 Bft)
21.07.2018 09:45 16,9 C 94 % 1010,3 hPa 0,0 l/m 0,0 km/h (0 Bft) W 269 15,9 C 16,9 C 0,0 km/h (0 Bft)
21.07.2018 09:40 16,9 C 94 % 1010,2 hPa 0,0 l/m 2,0 km/h (1 Bft) W 269 15,9 C 16,9 C 4,8 km/h (1 Bft)
21.07.2018 09:35 16,8 C 94 % 1010,2 hPa 0,0 l/m 1,1 km/h (1 Bft) W 269 15,8 C 16,8 C 4,8 km/h (1 Bft)
21.07.2018 09:30 16,8 C 95 % 1010,1 hPa 0,0 l/m 2,3 km/h (1 Bft) W 269 16,0 C 16,8 C 6,4 km/h (2 Bft)
21.07.2018 09:25 16,8 C 95 % 1010,2 hPa 0,0 l/m 1,7 km/h (1 Bft) W-NW 296 16,0 C 16,8 C 6,4 km/h (2 Bft)
21.07.2018 09:20 16,8 C 95 % 1010,2 hPa 0,0 l/m 4,3 km/h (1 Bft) W-NW 284 16,0 C 16,8 C 6,4 km/h (2 Bft)
21.07.2018 09:15 16,7 C 95 % 1010,1 hPa 0,0 l/m 4,4 km/h (1 Bft) W 279 15,9 C 16,7 C 6,4 km/h (2 Bft)
21.07.2018 09:10 16,6 C 95 % 1010,1 hPa 0,0 l/m 3,8 km/h (1 Bft) W-NW 298 15,8 C 16,6 C 6,4 km/h (2 Bft)
21.07.2018 09:05 16,4 C 95 % 1010,1 hPa 0,0 l/m 1,8 km/h (1 Bft) NW 313 15,6 C 16,4 C 4,8 km/h (1 Bft)
21.07.2018 09:00 16,4 C 95 % 1010,1 hPa 0,0 l/m 0,0 km/h (0 Bft) N 350 15,6 C 16,4 C 0,0 km/h (0 Bft)
21.07.2018 08:55 16,4 C 95 % 1010,1 hPa 0,0 l/m 0,0 km/h (0 Bft) N 350 15,6 C 16,4 C 0,0 km/h (0 Bft)
21.07.2018 08:50 16,4 C 95 % 1010,1 hPa 0,0 l/m 0,6 km/h (0 Bft) N 350 15,6 C 16,4 C 4,8 km/h (1 Bft)
21.07.2018 08:45 16,3 C 95 % 1010,1 hPa 0,0 l/m 2,4 km/h (1 Bft) N-NW 327 15,5 C 16,3 C 4,8 km/h (1 Bft)
21.07.2018 08:40 16,2 C 95 % 1010,1 hPa 0,0 l/m 2,5 km/h (1 Bft) SW 236 15,4 C 16,2 C 6,4 km/h (2 Bft)
21.07.2018 08:35 16,2 C 95 % 1010,0 hPa 0,2 l/m 5,2 km/h (1 Bft) SW 236 15,4 C 16,2 C 8,0 km/h (2 Bft)
21.07.2018 08:30 16,1 C 95 % 1009,9 hPa 0,0 l/m 5,3 km/h (1 Bft) W-SW 244 15,3 C 16,1 C 11,3 km/h (2 Bft)
21.07.2018 08:25 16,1 C 95 % 1009,8 hPa 0,2 l/m 8,1 km/h (2 Bft) W-SW 243 15,3 C 15,2 C 12,9 km/h (3 Bft)
21.07.2018 08:20 16,1 C 95 % 1009,7 hPa 0,0 l/m 10,1 km/h (2 Bft) W-SW 239 15,3 C 14,3 C 14,5 km/h (3 Bft)
21.07.2018 08:15 16,1 C 95 % 1009,7 hPa 0,0 l/m 9,4 km/h (2 Bft) W-SW 239 15,3 C 14,6 C 12,9 km/h (3 Bft)
21.07.2018 08:10 16,0 C 95 % 1009,6 hPa 0,0 l/m 10,0 km/h (2 Bft) W-SW 242 15,2 C 14,2 C 12,9 km/h (3 Bft)
21.07.2018 08:05 16,0 C 94 % 1009,5 hPa 0,0 l/m 10,9 km/h (2 Bft) W-SW 248 15,0 C 13,8 C 12,9 km/h (3 Bft)
21.07.2018 08:00 16,0 C 95 % 1009,5 hPa 0,0 l/m 9,7 km/h (2 Bft) W-SW 252 15,2 C 14,4 C 12,9 km/h (3 Bft)
21.07.2018 07:55 16,0 C 95 % 1009,5 hPa 0,0 l/m 10,1 km/h (2 Bft) W-SW 237 15,2 C 14,2 C 14,5 km/h (3 Bft)
21.07.2018 07:50 15,9 C 95 % 1009,4 hPa 0,0 l/m 11,0 km/h (2 Bft) W-SW 247 15,1 C 13,7 C 14,5 km/h (3 Bft)
21.07.2018 07:45 15,8 C 94 % 1009,5 hPa 0,0 l/m 10,5 km/h (2 Bft) W-SW 252 14,8 C 13,8 C 14,5 km/h (3 Bft)
21.07.2018 07:40 15,8 C 95 % 1009,5 hPa 0,2 l/m 11,3 km/h (2 Bft) SW 229 15,0 C 13,5 C 16,1 km/h (3 Bft)
21.07.2018 07:35 15,8 C 95 % 1009,6 hPa 0,0 l/m 9,8 km/h (2 Bft) SW 227 15,0 C 14,1 C 12,9 km/h (3 Bft)
21.07.2018 07:30 15,8 C 95 % 1009,7 hPa 0,0 l/m 10,7 km/h (2 Bft) SW 215 15,0 C 13,7 C 14,5 km/h (3 Bft)
21.07.2018 07:25 15,8 C 95 % 1009,7 hPa 0,0 l/m 10,0 km/h (2 Bft) S-SW 213 15,0 C 14,0 C 12,9 km/h (3 Bft)
21.07.2018 07:20 15,8 C 95 % 1009,7 hPa 0,2 l/m 10,1 km/h (2 Bft) S-SW 207 15,0 C 14,0 C 16,1 km/h (3 Bft)
21.07.2018 07:15 15,8 C 95 % 1009,7 hPa 0,0 l/m 10,8 km/h (2 Bft) S-SW 196 15,0 C 13,7 C 14,5 km/h (3 Bft)
21.07.2018 07:10 15,8 C 95 % 1009,7 hPa 0,2 l/m 11,4 km/h (2 Bft) S-SW 201 15,0 C 13,4 C 17,7 km/h (3 Bft)
21.07.2018 07:05 15,8 C 95 % 1009,7 hPa 0,0 l/m 13,0 km/h (3 Bft) S-SO 168 15,0 C 12,8 C 17,7 km/h (3 Bft)
21.07.2018 07:00 15,8 C 94 % 1009,7 hPa 0,0 l/m 13,5 km/h (3 Bft) S-SW 196 14,8 C 12,7 C 19,3 km/h (3 Bft)
21.07.2018 06:55 15,8 C 94 % 1009,5 hPa 0,0 l/m 14,5 km/h (3 Bft) S-SW 203 14,8 C 12,3 C 20,9 km/h (4 Bft)
21.07.2018 06:50 15,8 C 94 % 1009,6 hPa 0,0 l/m 12,8 km/h (3 Bft) S 187 14,8 C 12,9 C 19,3 km/h (3 Bft)
21.07.2018 06:45 15,8 C 94 % 1009,5 hPa 0,0 l/m 12,8 km/h (3 Bft) S 173 14,8 C 12,9 C 17,7 km/h (3 Bft)
21.07.2018 06:40 15,8 C 94 % 1009,5 hPa 0,0 l/m 13,2 km/h (3 Bft) S 185 14,8 C 12,8 C 17,7 km/h (3 Bft)
21.07.2018 06:35 15,8 C 94 % 1009,4 hPa 0,0 l/m 14,1 km/h (3 Bft) S-SW 211 14,8 C 12,5 C 19,3 km/h (3 Bft)
21.07.2018 06:30 15,8 C 94 % 1009,4 hPa 0,2 l/m 14,2 km/h (3 Bft) SW 217 14,8 C 12,4 C 20,9 km/h (4 Bft)
21.07.2018 06:25 15,8 C 94 % 1009,4 hPa 0,0 l/m 13,1 km/h (3 Bft) SW 217 14,8 C 12,8 C 17,7 km/h (3 Bft)
21.07.2018 06:20 15,8 C 94 % 1009,4 hPa 0,0 l/m 13,9 km/h (3 Bft) SW 217 14,8 C 12,5 C 19,3 km/h (3 Bft)
21.07.2018 06:15 15,8 C 94 % 1009,4 hPa 0,0 l/m 12,9 km/h (3 Bft) S-SW 213 14,8 C 12,9 C 16,1 km/h (3 Bft)
21.07.2018 06:10 15,8 C 94 % 1009,4 hPa 0,2 l/m 11,3 km/h (2 Bft) S-SW 207 14,8 C 13,5 C 16,1 km/h (3 Bft)
21.07.2018 06:05 15,8 C 94 % 1009,4 hPa 0,0 l/m 11,2 km/h (2 Bft) S-SW 209 14,8 C 13,5 C 14,5 km/h (3 Bft)
21.07.2018 06:00 15,8 C 94 % 1009,4 hPa 0,0 l/m 9,4 km/h (2 Bft) SW 214 14,8 C 14,3 C 12,9 km/h (3 Bft)
21.07.2018 05:55 15,8 C 94 % 1009,4 hPa 0,0 l/m 10,1 km/h (2 Bft) SW 223 14,8 C 14,0 C 12,9 km/h (3 Bft)
21.07.2018 05:50 15,8 C 94 % 1009,5 hPa 0,2 l/m 8,2 km/h (2 Bft) SW 217 14,8 C 14,8 C 12,9 km/h (3 Bft)
21.07.2018 05:45 15,9 C 94 % 1009,6 hPa 0,0 l/m 8,9 km/h (2 Bft) S-SW 212 14,9 C 14,6 C 14,5 km/h (3 Bft)
21.07.2018 05:40 15,9 C 94 % 1009,6 hPa 0,2 l/m 8,7 km/h (2 Bft) S-SW 196 14,9 C 14,7 C 12,9 km/h (3 Bft)
21.07.2018 05:35 15,9 C 94 % 1009,7 hPa 0,0 l/m 10,0 km/h (2 Bft) S 180 14,9 C 14,1 C 14,5 km/h (3 Bft)
21.07.2018 05:30 15,9 C 94 % 1009,7 hPa 0,2 l/m 9,2 km/h (2 Bft) S 171 14,9 C 14,5 C 14,5 km/h (3 Bft)
21.07.2018 05:25 15,9 C 94 % 1009,8 hPa 0,0 l/m 8,3 km/h (2 Bft) S-SO 157 14,9 C 14,9 C 14,5 km/h (3 Bft)
21.07.2018 05:20 15,8 C 94 % 1009,8 hPa 0,0 l/m 6,2 km/h (2 Bft) S-SO 155 14,8 C 15,8 C 12,9 km/h (3 Bft)
21.07.2018 05:15 15,8 C 94 % 1009,7 hPa 0,2 l/m 8,5 km/h (2 Bft) S 172 14,8 C 14,7 C 14,5 km/h (3 Bft)
21.07.2018 05:10 15,8 C 94 % 1009,8 hPa 0,2 l/m 7,5 km/h (2 Bft) S-SO 159 14,8 C 15,2 C 14,5 km/h (3 Bft)
21.07.2018 05:05 15,7 C 94 % 1009,8 hPa 0,2 l/m 7,7 km/h (2 Bft) SO 138 14,7 C 15,0 C 12,9 km/h (3 Bft)
21.07.2018 05:00 15,6 C 94 % 1009,8 hPa 0,0 l/m 10,8 km/h (2 Bft) S-SO 150 14,6 C 13,4 C 16,1 km/h (3 Bft)
21.07.2018 04:55 15,6 C 94 % 1009,8 hPa 0,0 l/m 10,8 km/h (2 Bft) SO 136 14,6 C 13,4 C 14,5 km/h (3 Bft)
21.07.2018 04:50 15,6 C 94 % 1009,7 hPa 0,0 l/m 8,0 km/h (2 Bft) O-SO 117 14,6 C 14,7 C 12,9 km/h (3 Bft)
21.07.2018 04:45 15,6 C 94 % 1009,7 hPa 0,0 l/m 11,6 km/h (2 Bft) O-SO 108 14,6 C 13,1 C 14,5 km/h (3 Bft)
21.07.2018 04:40 15,6 C 93 % 1009,5 hPa 0,0 l/m 10,8 km/h (2 Bft) O-SO 107 14,5 C 13,4 C 12,9 km/h (3 Bft)
21.07.2018 04:35 15,5 C 93 % 1009,4 hPa 0,0 l/m 7,6 km/h (2 Bft) O-SO 113 14,4 C 14,8 C 11,3 km/h (2 Bft)
21.07.2018 04:30 15,5 C 93 % 1009,4 hPa 0,0 l/m 7,0 km/h (2 Bft) SO 128 14,4 C 15,2 C 8,0 km/h (2 Bft)
21.07.2018 04:25 15,5 C 93 % 1009,5 hPa 0,0 l/m 6,2 km/h (2 Bft) SO 127 14,4 C 15,5 C 9,7 km/h (2 Bft)
21.07.2018 04:20 15,5 C 93 % 1009,5 hPa 0,0 l/m 6,7 km/h (2 Bft) O-SO 108 14,4 C 15,3 C 11,3 km/h (2 Bft)
21.07.2018 04:15 15,5 C 93 % 1009,5 hPa 0,0 l/m 7,2 km/h (2 Bft) O 101 14,4 C 15,1 C 9,7 km/h (2 Bft)
21.07.2018 04:10 15,6 C 92 % 1009,4 hPa 0,0 l/m 4,1 km/h (1 Bft) O 92 14,3 C 15,6 C 6,4 km/h (2 Bft)
21.07.2018 04:05 15,6 C 92 % 1009,5 hPa 0,0 l/m 4,8 km/h (1 Bft) O 90 14,3 C 15,6 C 6,4 km/h (2 Bft)
21.07.2018 04:00 15,6 C 92 % 1009,4 hPa 0,0 l/m 5,8 km/h (2 Bft) O 92 14,3 C 15,6 C 9,7 km/h (2 Bft)
21.07.2018 03:55 15,7 C 92 % 1009,4 hPa 0,0 l/m 5,5 km/h (2 Bft) O 100 14,4 C 15,7 C 9,7 km/h (2 Bft)
21.07.2018 03:50 15,7 C 91 % 1009,4 hPa 0,0 l/m 2,1 km/h (1 Bft) O-SO 121 14,2 C 15,7 C 6,4 km/h (2 Bft)
21.07.2018 03:45 15,7 C 91 % 1009,4 hPa 0,0 l/m 0,0 km/h (0 Bft) W-NW 296 14,2 C 15,7 C 0,0 km/h (0 Bft)
21.07.2018 03:40 15,8 C 92 % 1009,3 hPa 0,0 l/m 0,0 km/h (0 Bft) W-NW 296 14,5 C 15,8 C 0,0 km/h (0 Bft)
21.07.2018 03:35 15,8 C 92 % 1009,3 hPa 0,0 l/m 0,2 km/h (0 Bft) W-NW 296 14,5 C 15,8 C 1,6 km/h (1 Bft)
21.07.2018 03:30 15,8 C 92 % 1009,4 hPa 0,0 l/m 3,4 km/h (1 Bft) W-NW 296 14,5 C 15,8 C 6,4 km/h (2 Bft)
21.07.2018 03:25 15,8 C 92 % 1009,3 hPa 0,0 l/m 6,0 km/h (2 Bft) W-SW 255 14,5 C 15,8 C 8,0 km/h (2 Bft)
21.07.2018 03:20 15,8 C 92 % 1009,4 hPa 0,0 l/m 6,0 km/h (2 Bft) W-SW 240 14,5 C 15,8 C 9,7 km/h (2 Bft)
21.07.2018 03:15 15,8 C 92 % 1009,5 hPa 0,0 l/m 0,5 km/h (0 Bft) W-SW 246 14,5 C 15,8 C 3,2 km/h (1 Bft)
21.07.2018 03:10 15,8 C 92 % 1009,5 hPa 0,0 l/m 0,0 km/h (0 Bft) W-SW 246 14,5 C 15,8 C 1,6 km/h (1 Bft)
21.07.2018 03:05 15,8 C 92 % 1009,5 hPa 0,0 l/m 3,2 km/h (1 Bft) W-SW 246 14,5 C 15,8 C 8,0 km/h (2 Bft)
21.07.2018 03:00 15,8 C 92 % 1009,5 hPa 0,0 l/m 8,1 km/h (2 Bft) SW 229 14,5 C 14,9 C 11,3 km/h (2 Bft)
21.07.2018 02:55 15,7 C 92 % 1009,6 hPa 0,0 l/m 8,3 km/h (2 Bft) S-SW 213 14,4 C 14,7 C 12,9 km/h (3 Bft)
21.07.2018 02:50 15,7 C 92 % 1009,7 hPa 0,0 l/m 5,7 km/h (2 Bft) W-SW 250 14,4 C 15,7 C 11,3 km/h (2 Bft)
21.07.2018 02:45 15,7 C 92 % 1009,8 hPa 0,0 l/m 3,7 km/h (1 Bft) W-SW 240 14,4 C 15,7 C 6,4 km/h (2 Bft)
21.07.2018 02:40 15,7 C 92 % 1009,9 hPa 0,0 l/m 1,7 km/h (1 Bft) W-SW 250 14,4 C 15,7 C 6,4 km/h (2 Bft)
21.07.2018 02:35 15,7 C 92 % 1009,9 hPa 0,0 l/m 0,0 km/h (0 Bft) SO 145 14,4 C 15,7 C 0,0 km/h (0 Bft)
21.07.2018 02:30 15,6 C 92 % 1009,9 hPa 0,0 l/m 1,0 km/h (0 Bft) SO 145 14,3 C 15,6 C 4,8 km/h (1 Bft)
21.07.2018 02:25 15,6 C 92 % 1009,9 hPa 0,0 l/m 4,2 km/h (1 Bft) S-SO 153 14,3 C 15,6 C 11,3 km/h (2 Bft)
21.07.2018 02:20 15,6 C 92 % 1010,0 hPa 0,0 l/m 8,0 km/h (2 Bft) S-SW 206 14,3 C 14,7 C 14,5 km/h (3 Bft)
21.07.2018 02:15 15,6 C 92 % 1010,0 hPa 0,0 l/m 4,8 km/h (1 Bft) S-SO 167 14,3 C 15,6 C 9,7 km/h (2 Bft)
21.07.2018 02:10 15,6 C 92 % 1010,0 hPa 0,0 l/m 5,5 km/h (2 Bft) O-SO 104 14,3 C 15,6 C 9,7 km/h (2 Bft)
21.07.2018 02:05 15,6 C 92 % 1010,1 hPa 0,0 l/m 8,3 km/h (2 Bft) O-SO 113 14,3 C 14,6 C 12,9 km/h (3 Bft)
21.07.2018 02:00 15,5 C 91 % 1010,0 hPa 0,0 l/m 7,5 km/h (2 Bft) S 178 14,0 C 14,9 C 12,9 km/h (3 Bft)
21.07.2018 01:55 15,6 C 90 % 1010,0 hPa 0,0 l/m 5,6 km/h (2 Bft) S 172 14,0 C 15,6 C 11,3 km/h (2 Bft)
21.07.2018 01:50 15,6 C 90 % 1010,0 hPa 0,0 l/m 5,1 km/h (1 Bft) SO 126 14,0 C 15,6 C 6,4 km/h (2 Bft)
21.07.2018 01:45 15,6 C 90 % 1010,1 hPa 0,0 l/m 7,8 km/h (2 Bft) O-SO 118 14,0 C 14,8 C 11,3 km/h (2 Bft)
21.07.2018 01:40 15,7 C 89 % 1010,1 hPa 0,0 l/m 7,5 km/h (2 Bft) O-SO 113 13,9 C 15,1 C 11,3 km/h (2 Bft)
21.07.2018 01:35 15,8 C 89 % 1010,0 hPa 0,0 l/m 6,1 km/h (2 Bft) O-SO 114 14,0 C 15,8 C 9,7 km/h (2 Bft)
21.07.2018 01:30 15,9 C 89 % 1010,0 hPa 0,0 l/m 6,9 km/h (2 Bft) O-SO 123 14,1 C 15,6 C 8,0 km/h (2 Bft)
21.07.2018 01:25 16,0 C 89 % 1010,0 hPa 0,0 l/m 7,0 km/h (2 Bft) SO 126 14,2 C 15,7 C 11,3 km/h (2 Bft)
21.07.2018 01:20 16,1 C 89 % 1010,1 hPa 0,0 l/m 7,3 km/h (2 Bft) O-SO 120 14,3 C 15,6 C 11,3 km/h (2 Bft)
21.07.2018 01:15 16,2 C 88 % 1010,0 hPa 0,0 l/m 5,9 km/h (2 Bft) SO 127 14,2 C 16,2 C 9,7 km/h (2 Bft)
21.07.2018 01:10 16,3 C 88 % 1010,1 hPa 0,0 l/m 5,9 km/h (2 Bft) O-SO 119 14,3 C 16,3 C 9,7 km/h (2 Bft)
21.07.2018 01:05 16,3 C 88 % 1010,1 hPa 0,0 l/m 6,0 km/h (2 Bft) SO 130 14,3 C 16,3 C 12,9 km/h (3 Bft)
21.07.2018 01:00 16,3 C 88 % 1010,2 hPa 0,0 l/m 5,8 km/h (2 Bft) SO 146 14,3 C 16,3 C 8,0 km/h (2 Bft)
21.07.2018 00:55 16,4 C 88 % 1010,2 hPa 0,0 l/m 6,7 km/h (2 Bft) S-SO 157 14,4 C 16,3 C 11,3 km/h (2 Bft)
21.07.2018 00:50 16,4 C 88 % 1010,3 hPa 0,0 l/m 6,0 km/h (2 Bft) SO 142 14,4 C 16,4 C 11,3 km/h (2 Bft)
21.07.2018 00:45 16,4 C 88 % 1010,3 hPa 0,0 l/m 5,7 km/h (2 Bft) S-SO 150 14,4 C 16,4 C 9,7 km/h (2 Bft)
21.07.2018 00:40 16,4 C 88 % 1010,2 hPa 0,0 l/m 6,3 km/h (2 Bft) S-SO 165 14,4 C 16,4 C 11,3 km/h (2 Bft)
21.07.2018 00:35 16,4 C 88 % 1010,3 hPa 0,0 l/m 6,1 km/h (2 Bft) S-SO 155 14,4 C 16,4 C 9,7 km/h (2 Bft)
21.07.2018 00:30 16,4 C 88 % 1010,3 hPa 0,0 l/m 7,6 km/h (2 Bft) SO 127 14,4 C 15,8 C 12,9 km/h (3 Bft)
21.07.2018 00:25 16,3 C 88 % 1010,3 hPa 0,0 l/m 7,6 km/h (2 Bft) S-SO 159 14,3 C 15,7 C 12,9 km/h (3 Bft)
21.07.2018 00:20 16,4 C 87 % 1010,3 hPa 0,0 l/m 6,0 km/h (2 Bft) S-SO 167 14,2 C 16,4 C 9,7 km/h (2 Bft)
21.07.2018 00:15 16,4 C 87 % 1010,3 hPa 0,0 l/m 5,4 km/h (2 Bft) SO 136 14,2 C 16,4 C 9,7 km/h (2 Bft)
21.07.2018 00:10 16,5 C 86 % 1010,2 hPa 0,0 l/m 6,0 km/h (2 Bft) O-SO 119 14,1 C 16,5 C 9,7 km/h (2 Bft)
21.07.2018 00:05 16,6 C 86 % 1010,3 hPa 0,0 l/m 6,0 km/h (2 Bft) O-SO 123 14,2 C 16,6 C 8,0 km/h (2 Bft)
21.07.2018 00:00 16,6 C 86 % 1010,3 hPa 0,0 l/m 4,6 km/h (1 Bft) O-SO 119 14,2 C 16,6 C 6,4 km/h (2 Bft)
20.07.2018 23:55 16,6 C 86 % 1010,3 hPa 0,0 l/m 6,5 km/h (2 Bft) SO 139 14,2 C 16,6 C 11,3 km/h (2 Bft)
20.07.2018 23:50 16,6 C 86 % 1010,3 hPa 0,0 l/m 9,2 km/h (2 Bft) S 169 14,2 C 15,2 C 16,1 km/h (3 Bft)
20.07.2018 23:45 16,6 C 86 % 1010,4 hPa 0,0 l/m 9,2 km/h (2 Bft) S-SO 168 14,2 C 15,2 C 16,1 km/h (3 Bft)
20.07.2018 23:40 16,6 C 86 % 1010,4 hPa 0,0 l/m 8,1 km/h (2 Bft) S 178 14,2 C 15,7 C 16,1 km/h (3 Bft)
20.07.2018 23:35 16,5 C 86 % 1010,5 hPa 0,0 l/m 8,7 km/h (2 Bft) S 169 14,1 C 15,3 C 14,5 km/h (3 Bft)
20.07.2018 23:30 16,4 C 86 % 1010,4 hPa 0,0 l/m 10,4 km/h (2 Bft) S-SO 155 14,1 C 14,5 C 17,7 km/h (3 Bft)
20.07.2018 23:25 16,3 C 87 % 1010,4 hPa 0,0 l/m 9,3 km/h (2 Bft) S 175 14,1 C 14,9 C 17,7 km/h (3 Bft)
20.07.2018 23:20 16,1 C 88 % 1010,5 hPa 0,0 l/m 11,5 km/h (2 Bft) SO 136 14,1 C 13,7 C 20,9 km/h (4 Bft)
20.07.2018 23:15 15,9 C 89 % 1010,6 hPa 0,0 l/m 11,3 km/h (2 Bft) S-SO 151 14,1 C 13,6 C 17,7 km/h (3 Bft)
20.07.2018 23:10 15,7 C 91 % 1010,5 hPa 0,0 l/m 14,7 km/h (3 Bft) S-SO 166 14,2 C 12,1 C 20,9 km/h (4 Bft)
20.07.2018 23:05 15,6 C 92 % 1010,5 hPa 0,0 l/m 14,8 km/h (3 Bft) S-SO 163 14,3 C 12,0 C 24,1 km/h (4 Bft)
20.07.2018 23:00 15,6 C 92 % 1010,1 hPa 0,0 l/m 5,6 km/h (2 Bft) O-SO 105 14,3 C 15,6 C 8,0 km/h (2 Bft)
20.07.2018 22:55 15,6 C 92 % 1009,9 hPa 0,0 l/m 7,3 km/h (2 Bft) W-SW 247 14,3 C 15,1 C 11,3 km/h (2 Bft)
20.07.2018 22:50 15,5 C 92 % 1009,9 hPa 0,0 l/m 8,1 km/h (2 Bft) W-SW 247 14,2 C 14,6 C 12,9 km/h (3 Bft)
20.07.2018 22:45 15,4 C 92 % 1009,9 hPa 0,0 l/m 4,3 km/h (1 Bft) W-SW 257 14,1 C 15,4 C 8,0 km/h (2 Bft)
20.07.2018 22:40 15,4 C 92 % 1009,9 hPa 0,0 l/m 5,3 km/h (1 Bft) SW 236 14,1 C 15,4 C 8,0 km/h (2 Bft)
20.07.2018 22:35 15,4 C 92 % 1010,0 hPa 0,0 l/m 7,6 km/h (2 Bft) W-SW 246 14,1 C 14,7 C 11,3 km/h (2 Bft)
20.07.2018 22:30 15,4 C 92 % 1010,0 hPa 0,0 l/m 11,2 km/h (2 Bft) W-SW 247 14,1 C 13,0 C 12,9 km/h (3 Bft)
20.07.2018 22:25 15,4 C 92 % 1009,9 hPa 0,0 l/m 13,2 km/h (3 Bft) W-SW 249 14,1 C 12,3 C 16,1 km/h (3 Bft)
20.07.2018 22:20 15,4 C 92 % 1009,9 hPa 0,0 l/m 12,6 km/h (3 Bft) W-SW 253 14,1 C 12,5 C 14,5 km/h (3 Bft)
20.07.2018 22:15 15,4 C 91 % 1009,8 hPa 0,0 l/m 12,4 km/h (2 Bft) W-SW 257 13,9 C 12,6 C 14,5 km/h (3 Bft)
20.07.2018 22:10 15,4 C 91 % 1009,9 hPa 0,0 l/m 9,4 km/h (2 Bft) W-SW 252 13,9 C 13,8 C 11,3 km/h (2 Bft)
20.07.2018 22:05 15,5 C 91 % 1009,9 hPa 0,0 l/m 8,5 km/h (2 Bft) W-SW 248 14,0 C 14,4 C 11,3 km/h (2 Bft)
20.07.2018 22:00 15,6 C 91 % 1009,8 hPa 0,0 l/m 6,7 km/h (2 Bft) W-SW 246 14,1 C 15,4 C 8,0 km/h (2 Bft)
20.07.2018 21:55 15,7 C 91 % 1009,8 hPa 0,0 l/m 8,6 km/h (2 Bft) W-SW 246 14,2 C 14,5 C 11,3 km/h (2 Bft)
20.07.2018 21:50 15,8 C 90 % 1009,8 hPa 0,0 l/m 7,8 km/h (2 Bft) W-SW 244 14,2 C 15,0 C 11,3 km/h (2 Bft)
20.07.2018 21:45 15,9 C 90 % 1009,7 hPa 0,0 l/m 7,4 km/h (2 Bft) W-SW 244 14,3 C 15,4 C 8,0 km/h (2 Bft)
20.07.2018 21:40 16,1 C 90 % 1009,7 hPa 0,0 l/m 4,4 km/h (1 Bft) W-SW 243 14,5 C 16,1 C 8,0 km/h (2 Bft)
20.07.2018 21:35 16,2 C 90 % 1009,7 hPa 0,0 l/m 2,4 km/h (1 Bft) W-SW 243 14,6 C 16,2 C 4,8 km/h (1 Bft)
20.07.2018 21:30 16,2 C 90 % 1009,7 hPa 0,0 l/m 5,8 km/h (2 Bft) W-SW 243 14,6 C 16,2 C 8,0 km/h (2 Bft)
20.07.2018 21:25 16,3 C 90 % 1009,7 hPa 0,0 l/m 6,2 km/h (2 Bft) W-SW 238 14,7 C 16,3 C 8,0 km/h (2 Bft)
20.07.2018 21:20 16,4 C 89 % 1009,7 hPa 0,0 l/m 6,6 km/h (2 Bft) W-SW 247 14,6 C 16,3 C 9,7 km/h (2 Bft)
20.07.2018 21:15 16,6 C 89 % 1009,7 hPa 0,0 l/m 6,7 km/h (2 Bft) W 259 14,8 C 16,5 C 9,7 km/h (2 Bft)
20.07.2018 21:10 16,7 C 89 % 1009,8 hPa 0,0 l/m 9,7 km/h (2 Bft) W-SW 246 14,9 C 15,1 C 12,9 km/h (3 Bft)
20.07.2018 21:05 16,8 C 88 % 1009,8 hPa 0,0 l/m 11,8 km/h (2 Bft) W-SW 244 14,8 C 14,4 C 14,5 km/h (3 Bft)
20.07.2018 21:00 16,9 C 88 % 1009,9 hPa 0,0 l/m 3,8 km/h (1 Bft) W 265 14,9 C 16,9 C 11,3 km/h (2 Bft)
20.07.2018 20:55 16,8 C 88 % 1009,9 hPa 0,0 l/m 3,5 km/h (1 Bft) W-NW 294 14,8 C 16,8 C 6,4 km/h (2 Bft)
20.07.2018 20:50 16,7 C 87 % 1009,9 hPa 0,0 l/m 2,9 km/h (1 Bft) SO 126 14,5 C 16,7 C 6,4 km/h (2 Bft)
20.07.2018 20:45 16,7 C 86 % 1009,9 hPa 0,0 l/m 3,7 km/h (1 Bft) W-SW 239 14,3 C 16,7 C 6,4 km/h (2 Bft)
20.07.2018 20:40 16,8 C 86 % 1010,1 hPa 0,0 l/m 6,5 km/h (2 Bft) W-SW 239 14,4 C 16,8 C 8,0 km/h (2 Bft)
20.07.2018 20:35 16,8 C 85 % 1010,3 hPa 0,2 l/m 9,0 km/h (2 Bft) W-SW 254 14,3 C 15,5 C 14,5 km/h (3 Bft)
20.07.2018 20:30 16,8 C 85 % 1010,5 hPa 0,0 l/m 19,4 km/h (3 Bft) W-SW 255 14,3 C 12,2 C 25,7 km/h (4 Bft)
20.07.2018 20:25 16,8 C 84 % 1010,5 hPa 0,0 l/m 18,4 km/h (3 Bft) SW 234 14,1 C 12,5 C 24,1 km/h (4 Bft)
20.07.2018 20:20 16,7 C 84 % 1010,2 hPa 0,2 l/m 18,5 km/h (3 Bft) W 268 14,0 C 12,3 C 25,7 km/h (4 Bft)
20.07.2018 20:15 16,9 C 85 % 1010,7 hPa 0,0 l/m 24,0 km/h (4 Bft) W 266 14,4 C 11,4 C 30,6 km/h (5 Bft)
20.07.2018 20:10 17,0 C 83 % 1010,9 hPa 0,2 l/m 26,7 km/h (4 Bft) W-SW 249 14,1 C 11,0 C 38,6 km/h (6 Bft)
20.07.2018 20:05 17,2 C 82 % 1011,0 hPa 0,0 l/m 29,5 km/h (5 Bft) W-SW 248 14,1 C 10,9 C 38,6 km/h (6 Bft)
20.07.2018 20:00 17,6 C 81 % 1011,2 hPa 0,0 l/m 27,3 km/h (5 Bft) W-SW 245 14,3 C 11,7 C 37,0 km/h (5 Bft)
20.07.2018 19:55 18,2 C 80 % 1011,0 hPa 0,0 l/m 22,8 km/h (4 Bft) W-SW 241 14,7 C 13,3 C 29,0 km/h (5 Bft)
20.07.2018 19:50 18,8 C 79 % 1010,9 hPa 0,0 l/m 21,5 km/h (4 Bft) SW 235 15,1 C 14,4 C 25,7 km/h (4 Bft)
20.07.2018 19:45 19,3 C 77 % 1010,8 hPa 0,2 l/m 18,3 km/h (3 Bft) W-SW 247 15,2 C 15,6 C 24,1 km/h (4 Bft)
20.07.2018 19:40 19,8 C 74 % 1010,8 hPa 0,0 l/m 21,6 km/h (4 Bft) W-SW 254 15,0 C 15,7 C 29,0 km/h (5 Bft)
20.07.2018 19:35 20,3 C 70 % 1010,7 hPa 0,2 l/m 22,9 km/h (4 Bft) W 281 14,6 C 16,1 C 32,2 km/h (5 Bft)
20.07.2018 19:30 20,9 C 67 % 1010,6 hPa 0,0 l/m 20,4 km/h (4 Bft) W 265 14,5 C 17,3 C 25,7 km/h (4 Bft)
20.07.2018 19:25 21,4 C 65 % 1010,5 hPa 0,0 l/m 21,2 km/h (4 Bft) W 269 14,5 C 17,8 C 27,4 km/h (5 Bft)
20.07.2018 19:20 21,6 C 61 % 1010,4 hPa 0,0 l/m 24,1 km/h (4 Bft) W 266 13,7 C 17,7 C 38,6 km/h (6 Bft)
20.07.2018 19:15 21,8 C 60 % 1010,3 hPa 0,0 l/m 26,8 km/h (4 Bft) W 267 13,7 C 17,6 C 38,6 km/h (6 Bft)
20.07.2018 19:10 22,1 C 60 % 1010,2 hPa 0,0 l/m 25,3 km/h (4 Bft) W 261 14,0 C 18,2 C 33,8 km/h (5 Bft)
20.07.2018 19:05 22,6 C 60 % 1010,3 hPa 0,0 l/m 27,5 km/h (5 Bft) W-SW 258 14,4 C 18,6 C 37,0 km/h (5 Bft)
20.07.2018 19:00 23,0 C 58 % 1010,3 hPa 0,0 l/m 24,2 km/h (4 Bft) W-SW 254 14,3 C 19,5 C 32,2 km/h (5 Bft)
20.07.2018 18:55 23,5 C 57 % 1010,2 hPa 0,0 l/m 26,7 km/h (4 Bft) W 261 14,5 C 19,9 C 38,6 km/h (6 Bft)
20.07.2018 18:50 23,9 C 58 % 1010,2 hPa 0,0 l/m 12,7 km/h (3 Bft) W-SW 248 15,1 C 22,4 C 19,3 km/h (3 Bft)
20.07.2018 18:45 24,2 C 57 % 1010,0 hPa 0,0 l/m 9,5 km/h (2 Bft) S-SW 209 15,1 C 23,4 C 14,5 km/h (3 Bft)
20.07.2018 18:40 24,4 C 55 % 1010,0 hPa 0,0 l/m 7,4 km/h (2 Bft) S-SW 209 14,8 C 24,1 C 11,3 km/h (2 Bft)
20.07.2018 18:35 24,6 C 54 % 1009,9 hPa 0,0 l/m 8,3 km/h (2 Bft) S 188 14,7 C 24,1 C 11,3 km/h (2 Bft)
20.07.2018 18:30 24,8 C 54 % 1009,9 hPa 0,0 l/m 8,2 km/h (2 Bft) S 188 14,8 C 24,3 C 11,3 km/h (2 Bft)
20.07.2018 18:25 25,1 C 56 % 1009,9 hPa 0,0 l/m 7,8 km/h (2 Bft) S-SW 198 15,7 C 24,8 C 11,3 km/h (2 Bft)
20.07.2018 18:20 25,2 C 55 % 1009,9 hPa 0,0 l/m 8,4 km/h (2 Bft) S 186 15,5 C 24,7 C 12,9 km/h (3 Bft)
20.07.2018 18:15 25,4 C 56 % 1010,0 hPa 0,0 l/m 6,7 km/h (2 Bft) S-SW 196 16,0 C 25,3 C 11,3 km/h (2 Bft)
20.07.2018 18:10 25,6 C 55 % 1009,9 hPa 0,0 l/m 7,8 km/h (2 Bft) S 184 15,9 C 25,3 C 12,9 km/h (3 Bft)
20.07.2018 18:05 25,7 C 55 % 1009,7 hPa 0,0 l/m 7,5 km/h (2 Bft) S 169 16,0 C 25,4 C 12,9 km/h (3 Bft)
20.07.2018 18:00 25,8 C 55 % 1009,7 hPa 0,0 l/m 7,1 km/h (2 Bft) S-SO 155 16,1 C 25,6 C 9,7 km/h (2 Bft)
20.07.2018 17:55 25,9 C 53 % 1009,6 hPa 0,0 l/m 6,0 km/h (2 Bft) SO 127 15,6 C 25,9 C 11,3 km/h (2 Bft)
20.07.2018 17:50 26,1 C 52 % 1009,4 hPa 0,0 l/m 6,5 km/h (2 Bft) O-SO 121 15,5 C 26,1 C 8,0 km/h (2 Bft)
20.07.2018 17:45 26,2 C 52 % 1009,4 hPa 0,0 l/m 8,4 km/h (2 Bft) SO 138 15,6 C 25,8 C 12,9 km/h (3 Bft)
20.07.2018 17:40 26,4 C 51 % 1009,4 hPa 0,0 l/m 10,2 km/h (2 Bft) SO 138 15,4 C 25,7 C 14,5 km/h (3 Bft)
20.07.2018 17:35 26,7 C 51 % 1009,5 hPa 0,0 l/m 10,9 km/h (2 Bft) SO 135 15,7 C 25,9 C 14,5 km/h (3 Bft)
20.07.2018 17:30 26,8 C 49 % 1009,5 hPa 0,0 l/m 8,9 km/h (2 Bft) SO 131 15,2 C 26,3 C 12,9 km/h (3 Bft)
20.07.2018 17:25 27,0 C 48 % 1009,6 hPa 0,0 l/m 9,8 km/h (2 Bft) O-SO 120 15,0 C 26,4 C 14,5 km/h (3 Bft)
20.07.2018 17:20 27,1 C 45 % 1009,7 hPa 0,0 l/m 11,1 km/h (2 Bft) SO 133 14,1 C 26,3 C 14,5 km/h (3 Bft)
20.07.2018 17:15 27,2 C 48 % 1009,7 hPa 0,0 l/m 10,1 km/h (2 Bft) SO 129 15,2 C 26,6 C 14,5 km/h (3 Bft)
20.07.2018 17:10 27,1 C 47 % 1009,7 hPa 0,0 l/m 8,2 km/h (2 Bft) S-SO 152 14,8 C 26,8 C 14,5 km/h (3 Bft)
20.07.2018 17:05 27,1 C 46 % 1009,8 hPa 0,0 l/m 7,9 km/h (2 Bft) O 92 14,5 C 26,8 C 12,9 km/h (3 Bft)
20.07.2018 17:00 27,0 C 49 % 1009,9 hPa 0,0 l/m 7,1 km/h (2 Bft) SO 128 15,4 C 26,9 C 14,5 km/h (3 Bft)
20.07.2018 16:55 26,7 C 48 % 1010,1 hPa 0,0 l/m 5,9 km/h (2 Bft) SO 125 14,8 C 26,7 C 11,3 km/h (2 Bft)
20.07.2018 16:50 26,4 C 48 % 1010,0 hPa 0,0 l/m 5,0 km/h (1 Bft) O-SO 122 14,5 C 26,4 C 9,7 km/h (2 Bft)
20.07.2018 16:45 26,4 C 49 % 1010,1 hPa 0,0 l/m 8,5 km/h (2 Bft) O 81 14,8 C 26,0 C 12,9 km/h (3 Bft)
20.07.2018 16:40 26,3 C 52 % 1010,2 hPa 0,0 l/m 8,2 km/h (2 Bft) SO 129 15,6 C 25,9 C 14,5 km/h (3 Bft)
20.07.2018 16:35 26,1 C 57 % 1010,2 hPa 0,0 l/m 8,3 km/h (2 Bft) O-SO 116 16,9 C 25,7 C 14,5 km/h (3 Bft)
20.07.2018 16:30 26,1 C 59 % 1010,2 hPa 0,0 l/m 8,0 km/h (2 Bft) O 98 17,4 C 25,8 C 12,9 km/h (3 Bft)
20.07.2018 16:25 26,1 C 56 % 1010,3 hPa 0,0 l/m 9,9 km/h (2 Bft) SO 127 16,6 C 25,4 C 14,5 km/h (3 Bft)
20.07.2018 16:20 25,9 C 56 % 1010,5 hPa 0,0 l/m 9,4 km/h (2 Bft) O-SO 121 16,4 C 25,3 C 14,5 km/h (3 Bft)
20.07.2018 16:15 26,0 C 55 % 1010,6 hPa 0,0 l/m 7,6 km/h (2 Bft) SO 134 16,2 C 25,7 C 12,9 km/h (3 Bft)
20.07.2018 16:10 26,2 C 55 % 1010,6 hPa 0,0 l/m 8,9 km/h (2 Bft) S-SO 148 16,4 C 25,7 C 14,5 km/h (3 Bft)
20.07.2018 16:05 26,4 C 53 % 1010,8 hPa 0,0 l/m 8,5 km/h (2 Bft) SO 139 16,0 C 26,0 C 12,9 km/h (3 Bft)
20.07.2018 16:00 26,7 C 49 % 1010,8 hPa 0,0 l/m 9,4 km/h (2 Bft) SO 133 15,1 C 26,1 C 14,5 km/h (3 Bft)
_ Min-Zeit 22:45 17:20 03:40 - 10:50 - - 19:15 20:05 10:50
Minimum _ 15,4 C 45 % 1009,3 hPa - 0,0 km/h (0 Bft) - - 13,7 C 10,9 C 0,0 km/h (0 Bft)
_ Max-Zeit 17:15 09:30 13:45 10:20 20:05 - - 16:30 17:00 20:10
Maximum _ 27,2 C 95 % 1011,2 hPa 0,4 l/m 29,5 km/h
W-SW (5 Bft)
- - 17,4 C 26,9 C 38,6 km/h
W-SW (6 Bft)
Durchschnitt _ 18,5 C 83 % 1010,2 hPa #8,4 l/m 8,1 km/h (2 Bft) W-SW - 15,1 C 17,5 C 12,4 km/h (2 Bft)